Flight Track Log - Related Links

Times and Time Zones

All times are in EDT time to prevent confusion due to time zone crossing. See the AWI4084 flight status page for this flight to view local times or setup timezone preferences in your user account.


Time Position Orientation Groundspeed Altitude Reporting Facility
EDT Latitude Longitude Course Direction KTS MPH feet Rate Location/Type
Fri 03:54:58 PM 38.8833 -77.0667 346° North 177 204 2,200  Level Potomac TRACON
Fri 03:55:58 PM 38.9333 -77.1333 314° West 230 265 4,600 2,233 Climbing Potomac TRACON
Fri 03:57:00 PM 39.1763 -77.2126 336° Northwest  Level FlightAware Approximate
Fri 03:57:50 PM 38.9936 -77.2528 303° West 247 284 8,600  Level Washington Center
Fri 03:58:00 PM 39.2623 -77.2494 337° Northwest  Level FlightAware Approximate
Fri 03:58:51 PM 39.0233 -77.3683 288° West 269 310 11,700  Level Washington Center
Fri 03:59:00 PM 39.3459 -77.2958 337° Northwest  Level FlightAware Approximate
Fri 03:59:48 PM 39.0869 -77.4289 324° Northwest 271 312 13,000  Level Washington Center
Fri 04:00:00 PM 39.4295 -77.3320 346° North  Level FlightAware Approximate
Fri 04:00:49 PM 39.1703 -77.4281 360° North 271 312 14,600  Level Washington Center
Fri 04:01:49 PM 39.2642 -77.4333 358° North 301 346 16,100 1,488 Climbing Washington Center
Fri 04:02:50 PM 39.3578 -77.4383 358° North 326 375 17,600 1,388 Climbing Washington Center
Fri 04:03:50 PM 39.4536 -77.4433 358° North 337 388 18,900 1,180 Climbing Washington Center
Fri 04:05:53 PM 39.6614 -77.4567 357° North 376 433 21,200 1,239 Climbing New York Center
Fri 04:06:54 PM 39.7589 -77.4281 13° North 376 433 22,700 1,525 Climbing New York Center
Fri 04:07:55 PM 39.8511 -77.3800 22° Northeast 356 410 24,300 1,160 Climbing New York Center
Fri 04:08:53 PM 39.9417 -77.3289 23° Northeast 351 404 25,000 356 Climbing New York Center
Fri 04:09:53 PM 40.0381 -77.2811 21° North 356 410 25,000  Level New York Center
Fri 04:10:53 PM 40.1411 -77.2256 22° Northeast 361 415 25,000  Level New York Center
Fri 04:11:54 PM 40.2375 -77.1800 20° North 361 415 25,000  Level New York Center
Fri 04:12:54 PM 40.3300 -77.1286 23° Northeast 361 415 25,000  Level New York Center
Fri 04:13:55 PM 40.4242 -77.0800 21° North 361 415 25,000  Level New York Center
Fri 04:14:55 PM 40.5164 -77.0311 22° Northeast 361 415 25,000  Level New York Center
Fri 04:15:53 PM 40.6086 -76.9850 21° North 361 415 25,000  Level New York Center
Fri 04:16:53 PM 40.6986 -76.9356 23° Northeast 356 410 25,000  Level New York Center
Fri 04:17:54 PM 40.7908 -76.8861 22° Northeast 356 410 25,000  Level New York Center
Fri 04:18:54 PM 40.8831 -76.8369 22° Northeast 356 410 25,000  Level New York Center
Fri 04:19:54 PM 40.9731 -76.7872 23° Northeast 356 410 25,000 -694 Level New York Center
Fri 04:20:55 PM 41.0672 -76.7378 22° Northeast 356 410 23,600 -1,000 Descending New York Center
Fri 04:21:54 PM 41.1636 -76.6856 22° Northeast 361 415 23,000 -300 Descending New York Center
Fri 04:22:55 PM 41.2578 -76.6358 22° Northeast 361 415 23,000  Level New York Center
Fri 04:23:55 PM 41.3497 -76.5858 22° Northeast 361 415 23,000  Level New York Center
Fri 04:24:53 PM 41.4397 -76.5381 22° Northeast 355 409 23,000  Level New York Center
Fri 04:25:54 PM 41.5275 -76.4875 23° Northeast 350 403 23,000  Level New York Center
Fri 04:26:54 PM 41.6175 -76.4369 23° Northeast 345 397 23,000 -347 Level New York Center
Fri 04:27:55 PM 41.7072 -76.3889 22° Northeast 345 397 22,300 -1,169 Descending New York Center
Fri 04:28:52 PM 41.8061 -76.3639 11° North 345 397 20,700 -1,576 Descending New York Center
Fri 04:29:53 PM 41.9050 -76.3444 North 350 403 19,200 -1,463 Descending New York Center
Fri 04:30:55 PM 41.9975 -76.3242 North 350 403 17,700 -1,550 Descending New York Center
Fri 04:31:53 PM 42.0942 -76.3072 North 350 403 16,100 -1,627 Descending New York Center
Fri 04:32:53 PM 42.1803 -76.2919 North 338 389 14,500 -1,600 Descending New York Center
Fri 04:33:53 PM 42.2622 -76.2767 North 314 361 12,900 -1,050 Descending New York Center
Fri 04:36:13 PM 42.4514 -76.2392 North 286 329 11,000 -493 Descending Boston Center
Fri 04:37:32 PM 42.5544 -76.2172 North 293 337 11,100 -90 Climbing Boston Center
Fri 04:38:26 PM 42.6297 -76.2050 North 296 341 10,800 -1,148 Descending Boston Center
Fri 04:39:27 PM 42.7053 -76.1925 North 265 305 8,900 -1,934 Descending Boston Center
Fri 04:40:27 PM 42.7708 -76.1628 18° North 256 295 6,900 -1,934 Descending Boston Center
Fri 04:41:28 PM 42.8406 -76.1328 18° North 253 291 5,000 -1,800 Descending Boston Center
Fri 04:42:17 PM 42.8956 -76.1106 16° North 247 284 3,600 -826 Descending Boston Center
Fri 04:43:17 PM 42.9592 -76.0803 19° North 247 284 3,500 -100 Descending Boston Center

Login

Don't have an account? Register now (free) for customized features, flight alerts, and more!